Terminal Aerodrome Forecast
Issued by NWS

Home | Current Version | Previous Version | Text Only | Print | Product List | Glossary On
Versions: 1 2 3 4 5 6 7 8 9 10 11 12 13 14 15 16 17 18 19 20 21 22 23 24 25 26 27 28 29 30
567
FTPQ31 PGUM 062031 RRO
TAFGRO
TAF
PGRO 062031Z 0621/0718 07011G18KT P6SM VCSH FEW020 SCT060
     FM070000 07015G25KT P6SM VCSH FEW020 SCT060
     FM070900 07012KT P6SM VCSH FEW020 SCT060=

USA.gov is the U.S. government's official web portal to all federal, state and local government web resources and services.